Time;durP1;ratioP1;P1;durP2;ratioP2;P2;SDS_P1;SDS_P2;PMS_P1;PMS_P2;Temp;Humidity;BMP_temperature;BMP_pressure;BME280_temperature;BME280_humidity;BME280_pressure;Samples;Min_cycle;Max_cycle;Signal;HPM_P1;HPM_P2
2023/12/27 00:00:51;;;;;;;1.60;0.40;;;;;;;5.63;98.76;101290.69;5052146;28;21888;-63
2023/12/27 00:03:18;;;;;;;1.50;0.40;;;;;;;5.59;98.84;101292.25;5043468;28;20439;-63
2023/12/27 00:05:45;;;;;;;1.60;0.40;;;;;;;5.55;98.98;101304.56;5050936;28;20450;-63
2023/12/27 00:08:11;;;;;;;1.50;0.30;;;;;;;5.56;97.95;101298.94;5045567;28;20436;-63
2023/12/27 00:10:39;;;;;;;1.50;0.40;;;;;;;5.49;98.30;101295.63;5049043;28;20446;-63
2023/12/27 00:13:06;;;;;;;1.50;0.30;;;;;;;5.50;98.83;101301.81;5051562;28;20515;-63
2023/12/27 00:15:33;;;;;;;1.50;0.30;;;;;;;5.43;99.34;101303.88;5050768;28;20575;-62
2023/12/27 00:17:59;;;;;;;2.00;0.83;;;;;;;5.35;99.44;101302.41;5040261;28;20439;-62
2023/12/27 00:20:26;;;;;;;1.50;0.40;;;;;;;5.37;99.72;101307.56;5050605;28;20976;-62
2023/12/27 00:22:53;;;;;;;1.50;0.30;;;;;;;5.37;99.79;101310.25;5042937;28;20434;-62
2023/12/27 00:25:19;;;;;;;1.70;0.40;;;;;;;5.36;98.98;101311.28;5053195;28;20451;-62
2023/12/27 00:27:47;;;;;;;1.50;0.30;;;;;;;5.36;99.81;101319.34;5036651;28;20467;-62
2023/12/27 00:30:14;;;;;;;6.60;0.50;;;;;;;5.37;99.85;101324.47;5033318;28;20443;-62
2023/12/27 00:32:41;;;;;;;1.60;0.30;;;;;;;5.30;99.79;101316.59;5041305;28;20434;-63
2023/12/27 00:35:08;;;;;;;1.50;0.30;;;;;;;5.27;99.87;101327.84;5050441;28;20513;-62
2023/12/27 00:37:35;;;;;;;1.60;0.50;;;;;;;5.25;99.74;101321.91;5049924;28;20482;-62
2023/12/27 00:40:02;;;;;;;1.50;0.30;;;;;;;5.23;100.00;101317.84;5047038;28;20496;-62
2023/12/27 00:42:28;;;;;;;1.50;0.30;;;;;;;5.24;100.00;101332.88;5051115;28;20522;-62
2023/12/27 00:44:56;;;;;;;1.50;0.40;;;;;;;5.23;100.00;101342.81;5055983;28;20454;-62
2023/12/27 00:47:23;;;;;;;1.80;0.53;;;;;;;5.19;100.00;101335.50;5044374;28;20435;-62
2023/12/27 00:49:50;;;;;;;4.13;0.60;;;;;;;5.23;100.00;101345.50;5037221;28;20439;-62
2023/12/27 00:52:16;;;;;;;1.50;0.33;;;;;;;5.19;100.00;101352.44;5037166;28;20489;-62
2023/12/27 00:54:43;;;;;;;1.50;0.30;;;;;;;5.15;100.00;101356.66;5054905;28;20568;-62
2023/12/27 00:57:10;;;;;;;1.60;0.50;;;;;;;5.14;100.00;101355.03;5056594;28;20517;-64
2023/12/27 00:59:37;;;;;;;1.50;0.30;;;;;;;5.17;100.00;101356.41;5056738;28;20438;-67
2023/12/27 01:02:06;;;;;;;1.50;0.40;;;;;;;5.12;100.00;101350.97;5056181;28;20492;-64
2023/12/27 01:04:33;;;;;;;1.50;0.47;;;;;;;5.10;100.00;101370.03;5056912;28;20464;-64
2023/12/27 01:07:00;;;;;;;1.80;0.40;;;;;;;5.19;100.00;101367.75;5056071;28;20530;-63
2023/12/27 01:09:27;;;;;;;1.50;0.40;;;;;;;5.19;100.00;101365.84;5056429;28;20859;-63
2023/12/27 01:11:53;;;;;;;1.80;0.50;;;;;;;5.19;100.00;101370.41;5056120;28;20921;-63
2023/12/27 01:14:20;;;;;;;1.50;0.30;;;;;;;5.15;100.00;101383.53;5056135;28;20482;-63
2023/12/27 01:16:47;;;;;;;1.60;0.40;;;;;;;5.11;100.00;101382.38;5056657;28;20492;-63
2023/12/27 01:19:15;;;;;;;1.50;0.37;;;;;;;5.10;100.00;101388.81;5056559;28;20841;-63
2023/12/27 01:21:42;;;;;;;1.50;0.30;;;;;;;5.11;100.00;101401.19;5055810;28;20492;-63
2023/12/27 01:24:08;;;;;;;1.50;0.30;;;;;;;5.05;100.00;101400.28;5056152;28;20863;-63
2023/12/27 01:26:35;;;;;;;1.57;0.40;;;;;;;5.02;100.00;101402.63;5055803;28;20492;-63
2023/12/27 01:29:02;;;;;;;1.50;0.30;;;;;;;5.03;100.00;101417.69;5056263;28;20435;-63
2023/12/27 01:31:28;;;;;;;1.50;0.30;;;;;;;5.04;100.00;101430.03;5053253;28;20442;-63
2023/12/27 01:33:55;;;;;;;2.00;0.60;;;;;;;5.10;100.00;101430.97;5045252;28;20483;-63
2023/12/27 01:36:23;;;;;;;2.37;0.80;;;;;;;5.08;100.00;101439.25;5040539;28;20430;-63
2023/12/27 01:38:50;;;;;;;1.50;0.30;;;;;;;5.10;100.00;101439.84;5047876;28;20446;-63
2023/12/27 01:41:16;;;;;;;1.50;0.30;;;;;;;5.07;100.00;101445.69;5054605;28;20434;-63
2023/12/27 01:43:43;;;;;;;1.90;0.53;;;;;;;5.04;100.00;101446.16;5056019;28;20531;-63
2023/12/27 01:46:10;;;;;;;1.50;0.30;;;;;;;4.99;100.00;101452.25;5055148;28;20430;-63
2023/12/27 01:48:37;;;;;;;1.73;0.53;;;;;;;5.02;100.00;101459.84;5055781;28;20449;-63
2023/12/27 01:51:06;;;;;;;1.50;0.30;;;;;;;5.03;100.00;101460.66;5053892;28;20428;-63
2023/12/27 01:53:34;;;;;;;1.50;0.30;;;;;;;4.98;100.00;101461.38;5051104;28;20469;-63
2023/12/27 01:56:02;;;;;;;1.50;0.40;;;;;;;4.97;100.00;101454.38;5055340;28;20482;-63
2023/12/27 01:58:29;;;;;;;2.00;0.50;;;;;;;4.95;100.00;101464.53;5042399;28;20534;-63
2023/12/27 02:00:57;;;;;;;1.50;0.30;;;;;;;4.97;100.00;101457.06;5053534;28;20435;-63
2023/12/27 02:03:23;;;;;;;1.50;0.30;;;;;;;4.97;100.00;101454.38;5041473;28;20442;-63
2023/12/27 02:05:51;;;;;;;1.70;0.40;;;;;;;4.96;100.00;101451.94;5036455;28;20533;-63
2023/12/27 02:08:19;;;;;;;1.50;0.30;;;;;;;4.97;100.00;101462.44;5055184;28;20467;-63
2023/12/27 02:10:48;;;;;;;2.77;0.97;;;;;;;4.95;100.00;101464.53;5065884;22;20454;-65
2023/12/27 02:13:14;;;;;;;1.50;0.30;;;;;;;4.93;100.00;101469.34;5048537;28;20508;-65
2023/12/27 02:15:41;;;;;;;1.50;0.40;;;;;;;4.96;100.00;101470.75;5073335;28;20485;-67
2023/12/27 02:18:09;;;;;;;1.50;0.37;;;;;;;4.96;100.00;101476.09;5068066;28;20434;-68
2023/12/27 02:20:36;;;;;;;1.60;0.60;;;;;;;4.95;100.00;101482.50;5075368;28;20480;-67
2023/12/27 02:23:07;;;;;;;1.50;0.40;;;;;;;4.94;100.00;101480.88;5075052;28;20461;-66
2023/12/27 02:25:35;;;;;;;1.50;0.30;;;;;;;4.90;100.00;101477.06;5068644;28;20479;-66
2023/12/27 02:28:02;;;;;;;2.20;0.83;;;;;;;4.96;100.00;101479.59;5075118;28;20521;-66
2023/12/27 02:30:31;;;;;;;1.47;0.30;;;;;;;4.94;100.00;101470.97;5074417;28;20430;-66
2023/12/27 02:32:57;;;;;;;1.50;0.30;;;;;;;4.95;100.00;101477.94;5074929;28;20441;-66
2023/12/27 02:35:24;;;;;;;2.37;0.77;;;;;;;4.95;100.00;101474.44;5073856;28;20539;-67
2023/12/27 02:37:51;;;;;;;1.70;0.50;;;;;;;4.92;100.00;101480.31;5074530;28;20854;-66
2023/12/27 02:40:17;;;;;;;1.50;0.30;;;;;;;4.94;100.00;101483.56;5075153;28;20434;-66
2023/12/27 02:42:46;;;;;;;1.50;0.30;;;;;;;4.96;100.00;101478.78;5074718;28;20487;-67
2023/12/27 02:45:13;;;;;;;1.63;0.47;;;;;;;4.96;100.00;101470.75;5074388;28;20540;-66
2023/12/27 02:47:40;;;;;;;1.50;0.40;;;;;;;4.86;100.00;101470.53;5074104;28;20483;-66
2023/12/27 02:50:08;;;;;;;1.60;0.40;;;;;;;4.92;100.00;101464.22;5074443;28;20499;-67
2023/12/27 02:52:34;;;;;;;2.03;0.70;;;;;;;4.91;100.00;101468.75;5074760;28;20465;-66
2023/12/27 02:55:01;;;;;;;1.50;0.30;;;;;;;4.90;100.00;101466.31;5073444;28;20550;-66
2023/12/27 02:57:28;;;;;;;2.63;0.93;;;;;;;4.90;100.00;101460.94;5074070;28;20487;-66
2023/12/27 02:59:56;;;;;;;1.60;0.50;;;;;;;4.86;100.00;101459.78;5074618;28;20520;-66
2023/12/27 03:02:23;;;;;;;1.50;0.30;;;;;;;4.86;100.00;101454.44;5073458;28;20466;-66
2023/12/27 03:04:49;;;;;;;1.50;0.30;;;;;;;4.87;100.00;101474.84;5074214;28;20481;-66
2023/12/27 03:07:15;;;;;;;1.50;0.40;;;;;;;4.92;100.00;101464.22;5073764;28;20468;-66
2023/12/27 03:09:42;;;;;;;1.60;0.60;;;;;;;4.92;100.00;101480.31;5074117;28;20245;-66
2023/12/27 03:12:09;;;;;;;1.50;0.30;;;;;;;4.92;100.00;101480.31;5073566;28;20445;-66
2023/12/27 03:14:36;;;;;;;1.50;0.40;;;;;;;4.95;100.00;101486.00;5072640;28;20445;-66
2023/12/27 03:17:04;;;;;;;5.60;0.73;;;;;;;4.90;100.00;101485.91;5073165;28;20458;-66
2023/12/27 03:19:31;;;;;;;1.80;0.53;;;;;;;4.89;100.00;101480.81;5074260;28;20834;-67
2023/12/27 03:21:57;;;;;;;1.50;0.40;;;;;;;4.84;100.00;101492.25;5073746;28;20494;-68
2023/12/27 03:24:24;;;;;;;3.80;0.50;;;;;;;4.86;100.00;101476.72;5073444;28;20457;-67
2023/12/27 03:26:51;;;;;;;1.50;0.30;;;;;;;4.80;100.00;101480.38;5074068;28;20445;-67
2023/12/27 03:29:18;;;;;;;3.53;0.47;;;;;;;4.80;100.00;101478.50;5073025;28;20491;-67
2023/12/27 03:31:44;;;;;;;1.50;0.30;;;;;;;4.72;100.00;101478.06;5072906;28;20433;-67
2023/12/27 03:34:11;;;;;;;1.60;0.50;;;;;;;4.81;100.00;101473.94;5073538;28;20972;-67
2023/12/27 03:36:38;;;;;;;1.50;0.30;;;;;;;4.77;100.00;101473.59;5073939;28;20474;-67
2023/12/27 03:39:05;;;;;;;1.53;0.37;;;;;;;4.73;100.00;101483.19;5072815;28;20918;-67
2023/12/27 03:41:31;;;;;;;2.53;0.60;;;;;;;4.71;100.00;101487.19;5073673;28;20447;-67
2023/12/27 03:43:59;;;;;;;4.27;0.90;;;;;;;4.72;100.00;101486.94;5073600;28;20796;-67
2023/12/27 03:46:26;;;;;;;3.03;0.70;;;;;;;4.73;100.00;101485.88;5073355;28;20434;-67
2023/12/27 03:48:53;;;;;;;1.50;0.40;;;;;;;4.76;100.00;101492.63;5072766;28;20972;-67
2023/12/27 03:51:23;;;;;;;1.60;0.40;;;;;;;4.74;100.00;101494.75;5073161;28;20460;-67
2023/12/27 03:53:49;;;;;;;1.50;0.40;;;;;;;4.70;100.00;101502.47;5072988;28;20977;-67
2023/12/27 03:56:16;;;;;;;1.50;0.37;;;;;;;4.71;100.00;101498.72;5073621;28;20481;-67
2023/12/27 03:58:44;;;;;;;1.57;0.40;;;;;;;4.73;100.00;101498.47;5073437;28;20472;-67
2023/12/27 04:01:11;;;;;;;1.50;0.30;;;;;;;4.76;100.00;101504.19;5072635;28;20520;-67
2023/12/27 04:03:37;;;;;;;1.50;0.40;;;;;;;4.77;100.00;101511.16;5073214;28;20437;-67
2023/12/27 04:06:04;;;;;;;1.50;0.30;;;;;;;4.72;100.00;101516.44;5073781;28;20492;-67
2023/12/27 04:08:33;;;;;;;1.60;0.40;;;;;;;4.66;100.00;101517.41;5073751;28;20847;-68
2023/12/27 04:10:59;;;;;;;1.50;0.30;;;;;;;4.68;100.00;101527.91;5073164;28;20783;-68
2023/12/27 04:13:26;;;;;;;1.50;0.30;;;;;;;4.61;100.00;101517.31;5072929;28;20461;-67
2023/12/27 04:15:53;;;;;;;1.50;0.40;;;;;;;4.60;100.00;101514.84;5072883;28;20530;-67
2023/12/27 04:18:19;;;;;;;1.93;0.63;;;;;;;4.60;100.00;101507.63;5078091;28;20498;-67
2023/12/27 04:20:46;;;;;;;2.63;0.57;;;;;;;4.59;100.00;101514.03;5079661;28;20433;-67
2023/12/27 04:23:13;;;;;;;1.80;0.50;;;;;;;4.57;100.00;101515.34;5079199;28;20499;-67
2023/12/27 04:25:41;;;;;;;1.50;0.30;;;;;;;4.55;100.00;101507.50;5079190;28;20481;-67
2023/12/27 04:28:08;;;;;;;1.57;0.40;;;;;;;4.59;100.00;101511.34;5080285;28;20490;-67
2023/12/27 04:30:34;;;;;;;1.50;0.40;;;;;;;4.58;100.00;101512.41;5079814;28;20452;-67
2023/12/27 04:33:01;;;;;;;1.80;0.60;;;;;;;4.57;100.00;101520.72;5080222;28;20566;-68
2023/12/27 04:35:28;;;;;;;1.50;0.40;;;;;;;4.51;100.00;101512.53;5079278;28;20538;-67
2023/12/27 04:37:54;;;;;;;1.50;0.30;;;;;;;4.49;100.00;101519.22;5079056;28;20986;-67
2023/12/27 04:40:21;;;;;;;1.50;0.40;;;;;;;4.48;100.00;101521.06;5079620;28;20453;-67
2023/12/27 04:42:49;;;;;;;1.60;0.47;;;;;;;4.50;100.00;101536.94;5080199;28;20437;-67
2023/12/27 04:45:16;;;;;;;1.50;0.30;;;;;;;4.43;100.00;101531.72;5078859;28;20503;-67
2023/12/27 04:47:42;;;;;;;2.33;0.60;;;;;;;4.41;100.00;101531.13;5079244;28;20433;-67
2023/12/27 04:50:10;;;;;;;1.50;0.40;;;;;;;4.37;100.00;101532.63;5080479;28;20491;-67
2023/12/27 04:52:36;;;;;;;1.50;0.30;;;;;;;4.40;100.00;101531.34;5078980;28;20429;-67
2023/12/27 04:55:03;;;;;;;1.60;0.40;;;;;;;4.35;100.00;101533.94;5079142;28;22092;-67
2023/12/27 04:57:30;;;;;;;2.20;0.77;;;;;;;4.39;100.00;101535.09;5078883;28;20841;-67
2023/12/27 04:59:58;;;;;;;2.27;0.47;;;;;;;4.35;100.00;101540.13;5079093;28;20434;-67
2023/12/27 05:02:25;;;;;;;1.50;0.30;;;;;;;4.34;100.00;101541.19;5078598;28;20430;-67
2023/12/27 05:04:52;;;;;;;1.50;0.40;;;;;;;4.28;100.00;101542.91;5079315;28;20481;-67
2023/12/27 05:07:18;;;;;;;1.60;0.40;;;;;;;4.27;100.00;101545.84;5078618;28;20457;-67
2023/12/27 05:09:45;;;;;;;1.50;0.30;;;;;;;4.23;100.00;101552.72;5079285;28;20433;-67
2023/12/27 05:12:12;;;;;;;1.50;0.30;;;;;;;4.19;100.00;101551.56;5079023;28;20825;-67
2023/12/27 05:14:38;;;;;;;1.60;0.40;;;;;;;4.19;100.00;101546.19;5079977;28;20503;-67
2023/12/27 05:17:06;;;;;;;4.33;0.50;;;;;;;4.23;100.00;101547.34;5079067;28;20496;-67
2023/12/27 05:19:33;;;;;;;1.50;0.30;;;;;;;4.22;100.00;101545.72;5078690;28;20433;-67
2023/12/27 05:22:00;;;;;;;1.50;0.30;;;;;;;4.25;100.00;101556.81;5078560;28;20469;-67
2023/12/27 05:24:26;;;;;;;1.50;0.30;;;;;;;4.27;100.00;101549.31;5070546;28;21057;-67
2023/12/27 05:26:54;;;;;;;1.63;0.50;;;;;;;4.26;100.00;101553.06;5079105;28;20453;-67
2023/12/27 05:29:21;;;;;;;1.60;0.43;;;;;;;4.29;100.00;101555.28;5068105;28;20925;-67
2023/12/27 05:31:48;;;;;;;1.50;0.40;;;;;;;4.29;100.00;101563.34;5075477;28;20846;-70
2023/12/27 05:34:16;;;;;;;1.50;0.40;;;;;;;4.22;100.00;101576.03;5076138;28;20453;-67
2023/12/27 05:36:42;;;;;;;1.50;0.30;;;;;;;4.21;100.00;101571.72;5075423;28;20509;-67
2023/12/27 05:39:10;;;;;;;1.50;0.30;;;;;;;4.21;100.00;101577.09;5076667;28;20507;-67
2023/12/27 05:41:38;;;;;;;1.50;0.40;;;;;;;4.21;100.00;101579.78;5075457;28;20434;-67
2023/12/27 05:44:05;;;;;;;1.70;0.57;;;;;;;4.21;100.00;101574.41;5076107;28;20906;-67
2023/12/27 05:46:34;;;;;;;5.20;0.60;;;;;;;4.22;100.00;101589.44;5074953;28;20477;-67
2023/12/27 05:49:01;;;;;;;1.50;0.30;;;;;;;4.19;100.00;101587.22;5074980;28;20469;-67
2023/12/27 05:51:29;;;;;;;1.50;0.30;;;;;;;4.21;100.00;101589.69;5075958;28;20522;-67
2023/12/27 05:53:56;;;;;;;1.50;0.40;;;;;;;4.19;100.00;101599.81;5075502;28;20465;-67
2023/12/27 05:56:23;;;;;;;1.50;0.30;;;;;;;4.14;100.00;101597.03;5074471;28;20481;-68
2023/12/27 05:58:50;;;;;;;1.50;0.40;;;;;;;4.08;100.00;101601.47;5075554;28;20788;-67
2023/12/27 06:01:18;;;;;;;1.50;0.40;;;;;;;4.08;100.00;101598.78;5075104;28;20483;-67
2023/12/27 06:03:45;;;;;;;1.50;0.30;;;;;;;4.06;100.00;101606.22;5074942;28;20928;-67
2023/12/27 06:06:12;;;;;;;1.60;0.50;;;;;;;4.05;100.00;101608.09;5075095;28;20499;-67
2023/12/27 06:08:40;;;;;;;1.60;0.50;;;;;;;4.03;100.00;101606.69;5075136;28;20931;-67
2023/12/27 06:11:11;;;;;;;3.70;0.57;;;;;;;3.97;100.00;101612.97;5074550;28;20445;-67
2023/12/27 06:13:38;;;;;;;1.50;0.40;;;;;;;3.96;100.00;101612.16;5074512;28;20414;-67
2023/12/27 06:16:06;;;;;;;1.70;0.60;;;;;;;3.99;100.00;101618.94;5074162;28;20927;-68
2023/12/27 06:18:33;;;;;;;1.60;0.50;;;;;;;3.98;100.00;101617.28;5074979;28;20437;-68
2023/12/27 06:20:59;;;;;;;1.60;0.50;;;;;;;3.93;100.00;101626.00;5074548;28;20433;-68
2023/12/27 06:23:25;;;;;;;1.50;0.30;;;;;;;3.94;100.00;101634.88;5075612;28;21027;-68
2023/12/27 06:25:53;;;;;;;1.80;0.50;;;;;;;3.94;100.00;101637.53;5074917;28;20195;-68
2023/12/27 06:28:20;;;;;;;1.90;0.70;;;;;;;3.91;100.00;101641.53;5074862;28;20469;-68
2023/12/27 06:30:47;;;;;;;1.50;0.40;;;;;;;3.88;100.00;101644.66;5074438;28;20465;-67
2023/12/27 06:33:14;;;;;;;1.50;0.30;;;;;;;3.92;100.00;101647.69;5075266;28;20524;-67
2023/12/27 06:35:41;;;;;;;1.50;0.30;;;;;;;3.91;100.00;101646.88;5074361;28;20512;-67
2023/12/27 06:38:08;;;;;;;1.50;0.30;;;;;;;3.91;100.00;101646.88;5070713;28;20499;-68
2023/12/27 06:40:35;;;;;;;1.50;0.30;;;;;;;3.92;100.00;101647.69;5074402;28;20441;-68
2023/12/27 06:43:03;;;;;;;1.50;0.30;;;;;;;3.91;100.00;101648.75;5074958;28;20942;-68
2023/12/27 06:45:30;;;;;;;1.60;0.40;;;;;;;3.91;100.00;101648.75;5074057;28;20449;-68
2023/12/27 06:47:56;;;;;;;1.50;0.40;;;;;;;3.91;100.00;101646.06;5073392;28;20433;-68
2023/12/27 06:50:23;;;;;;;1.50;0.30;;;;;;;3.89;100.00;101637.44;5074483;28;20472;-68
2023/12/27 06:52:50;;;;;;;4.17;0.73;;;;;;;3.88;100.00;101641.97;5074806;28;20434;-68
2023/12/27 06:55:17;;;;;;;1.50;0.30;;;;;;;3.97;100.00;101647.81;5074264;28;20976;-68
2023/12/27 06:57:44;;;;;;;1.90;0.93;;;;;;;3.92;100.00;101645.00;5073797;28;20509;-68
2023/12/27 07:00:14;;;;;;;1.50;0.30;;;;;;;3.93;100.00;101647.44;5074198;28;20498;-68
2023/12/27 07:02:41;;;;;;;2.67;0.90;;;;;;;3.89;100.00;101653.50;5074344;28;20461;-68
2023/12/27 07:05:08;;;;;;;1.50;0.30;;;;;;;3.87;100.00;101655.59;5074230;28;20515;-68
2023/12/27 07:07:34;;;;;;;1.53;0.40;;;;;;;3.88;100.00;101654.56;5073786;28;20430;-68
2023/12/27 07:10:01;;;;;;;1.50;0.30;;;;;;;3.85;100.00;101663.88;5073721;28;20449;-68
2023/12/27 07:12:28;;;;;;;2.50;0.50;;;;;;;3.89;100.00;101666.91;5073707;28;20502;-68
2023/12/27 07:14:55;;;;;;;1.50;0.30;;;;;;;3.93;100.00;101666.22;5073926;28;20457;-68
2023/12/27 07:17:23;;;;;;;1.50;0.40;;;;;;;3.96;100.00;101673.81;5073656;28;21232;-68
2023/12/27 07:19:50;;;;;;;1.50;0.30;;;;;;;4.04;100.00;101681.53;5073241;28;20425;-68
2023/12/27 07:22:18;;;;;;;1.50;0.30;;;;;;;4.08;100.00;101676.53;5073619;28;20465;-68
2023/12/27 07:24:45;;;;;;;1.83;0.63;;;;;;;4.10;100.00;101671.72;5073779;28;20450;-68
2023/12/27 07:27:12;;;;;;;2.27;0.40;;;;;;;4.08;100.00;101681.88;5073871;28;20472;-68
2023/12/27 07:29:38;;;;;;;1.43;0.30;;;;;;;4.09;100.00;101680.00;5073198;28;20487;-68
2023/12/27 07:32:06;;;;;;;1.50;0.30;;;;;;;4.09;100.00;101699.59;5073246;28;20452;-68
2023/12/27 07:34:34;;;;;;;2.43;0.70;;;;;;;4.08;100.00;101692.59;5072165;28;20953;-68
2023/12/27 07:37:00;;;;;;;1.50;0.30;;;;;;;4.09;100.00;101696.91;5072392;28;20505;-67
2023/12/27 07:39:27;;;;;;;1.50;0.30;;;;;;;4.00;100.00;101684.88;5072890;28;20522;-67
2023/12/27 07:41:53;;;;;;;1.50;0.30;;;;;;;3.98;100.00;101678.94;5073245;28;20433;-67
2023/12/27 07:44:21;;;;;;;1.50;0.37;;;;;;;3.99;100.00;101681.41;5073654;28;20534;-68
2023/12/27 07:46:48;;;;;;;1.53;0.40;;;;;;;3.91;100.00;101687.09;5073388;28;20437;-68
2023/12/27 07:49:14;;;;;;;1.40;0.30;;;;;;;3.95;100.00;101682.09;5073153;28;20483;-68
2023/12/27 07:51:42;;;;;;;1.50;0.30;;;;;;;3.93;100.00;101676.94;5072742;28;20434;-68
2023/12/27 07:54:09;;;;;;;1.50;0.37;;;;;;;3.93;100.00;101684.16;5073782;28;20610;-68
2023/12/27 07:56:36;;;;;;;1.50;0.30;;;;;;;3.95;100.00;101687.44;5072417;28;20502;-67
2023/12/27 07:59:03;;;;;;;1.50;0.40;;;;;;;3.90;100.00;101692.69;5072824;28;20437;-68
2023/12/27 08:01:30;;;;;;;1.50;0.30;;;;;;;3.83;100.00;101692.75;5073222;28;20438;-68
2023/12/27 08:03:57;;;;;;;9.23;0.77;;;;;;;3.89;100.00;101712.47;5072713;28;21004;-69
2023/12/27 08:06:23;;;;;;;4.37;0.63;;;;;;;3.85;100.00;101697.88;5072971;28;20468;-69
2023/12/27 08:08:52;;;;;;;2.67;1.43;;;;;;;3.82;100.00;101701.03;5062096;28;20465;-70
2023/12/27 08:13:47;;;;;;;1.50;0.40;;;;;;;3.84;100.00;101702.44;5004780;28;20480;-69
2023/12/27 08:16:14;;;;;;;1.50;0.40;;;;;;;3.81;100.00;101708.28;5023277;28;20484;-69
2023/12/27 08:18:41;;;;;;;2.00;0.70;;;;;;;3.83;100.00;101708.03;5014790;28;20927;-68
2023/12/27 08:21:08;;;;;;;1.90;0.50;;;;;;;3.85;100.00;101709.44;5013971;28;20452;-68
2023/12/27 08:23:35;;;;;;;1.50;0.40;;;;;;;3.89;100.00;101713.28;5014231;28;20428;-69
2023/12/27 08:26:06;;;;;;;2.03;0.77;;;;;;;3.92;100.00;101722.75;5017597;28;20527;-68
2023/12/27 08:28:33;;;;;;;2.27;0.70;;;;;;;3.94;100.00;101710.75;5013817;28;20793;-69
2023/12/27 08:31:00;;;;;;;1.50;0.40;;;;;;;3.94;100.00;101723.31;5020709;28;20489;-72
2023/12/27 08:33:28;;;;;;;1.50;0.30;;;;;;;3.95;100.00;101728.47;5025379;28;20801;-68
2023/12/27 08:35:55;;;;;;;5.47;0.70;;;;;;;3.99;100.00;101734.19;5022404;28;20482;-69
2023/12/27 08:38:23;;;;;;;1.60;0.50;;;;;;;3.94;100.00;101732.19;5012811;28;20507;-69
2023/12/27 08:40:49;;;;;;;2.90;1.03;;;;;;;3.93;100.00;101721.69;5013429;28;20543;-70
2023/12/27 08:43:18;;;;;;;1.50;0.30;;;;;;;3.89;100.00;101724.00;5014850;28;20534;-69
2023/12/27 08:45:45;;;;;;;5.43;1.10;;;;;;;3.94;100.00;101731.34;5013963;28;20267;-69
2023/12/27 08:48:11;;;;;;;1.60;0.40;;;;;;;3.99;100.00;101728.84;5012664;28;20440;-69
2023/12/27 08:50:40;;;;;;;1.60;0.40;;;;;;;4.07;100.00;101738.38;5028957;28;20546;-67
2023/12/27 08:53:07;;;;;;;1.50;0.40;;;;;;;4.08;100.00;101740.84;5013451;28;20452;-67
2023/12/27 08:55:34;;;;;;;2.73;0.60;;;;;;;4.09;100.00;101745.16;5023947;28;20461;-67
2023/12/27 08:58:00;;;;;;;1.57;0.37;;;;;;;4.17;100.00;101742.16;5012915;28;20533;-67
2023/12/27 09:00:29;;;;;;;1.50;0.30;;;;;;;4.22;100.00;101746.84;5014983;28;21007;-68
2023/12/27 09:02:55;;;;;;;1.60;0.47;;;;;;;4.22;100.00;101739.59;5021897;28;20440;-68
2023/12/27 09:05:22;;;;;;;1.50;0.40;;;;;;;4.26;100.00;101739.97;5033107;28;20465;-69
2023/12/27 09:07:49;;;;;;;1.87;0.50;;;;;;;4.26;100.00;101739.97;5022403;28;21036;-69
2023/12/27 09:10:15;;;;;;;1.63;0.57;;;;;;;4.31;100.00;101748.13;5025958;28;20493;-69
2023/12/27 09:12:43;;;;;;;1.60;0.43;;;;;;;4.39;100.00;101741.63;5020679;28;20448;-69
2023/12/27 09:15:10;;;;;;;1.53;0.40;;;;;;;4.39;100.00;101737.06;5021517;28;20463;-69
2023/12/27 09:17:38;;;;;;;1.50;0.30;;;;;;;4.41;100.00;101736.84;5017272;28;20538;-69
2023/12/27 09:20:07;;;;;;;1.47;0.30;;;;;;;4.46;100.00;101748.50;5022327;28;20440;-69
2023/12/27 09:22:34;;;;;;;1.53;0.40;;;;;;;4.51;100.00;101745.94;5019065;28;20439;-68
2023/12/27 09:25:01;;;;;;;1.50;0.40;;;;;;;4.58;100.00;101753.88;5016211;28;20467;-69
2023/12/27 09:27:28;;;;;;;1.70;0.50;;;;;;;4.61;100.00;101752.63;5022569;28;20463;-69
2023/12/27 09:29:54;;;;;;;4.30;0.50;;;;;;;4.66;100.00;101755.41;5016765;28;20993;-69
2023/12/27 09:32:21;;;;;;;2.33;0.50;;;;;;;4.69;100.00;101758.47;5026582;28;20796;-69
2023/12/27 09:34:49;;;;;;;1.50;0.30;;;;;;;4.77;100.00;101757.28;5018284;28;20506;-69
2023/12/27 09:37:16;;;;;;;1.50;0.40;;;;;;;4.81;100.00;101751.22;5016311;28;20566;-69
2023/12/27 09:39:43;;;;;;;10.40;0.83;;;;;;;4.85;100.00;101748.88;5018267;28;20502;-69
2023/12/27 09:42:10;;;;;;;1.60;0.60;;;;;;;4.91;100.00;101747.94;5029143;28;20443;-69
2023/12/27 09:44:38;;;;;;;1.60;0.50;;;;;;;4.99;100.00;101752.13;5011228;28;20519;-69
2023/12/27 09:47:09;;;;;;;1.50;0.40;;;;;;;5.01;100.00;101753.53;5017470;28;20441;-70
2023/12/27 09:49:37;;;;;;;1.50;0.37;;;;;;;5.03;100.00;101750.63;5015777;28;20464;-69
2023/12/27 09:52:07;;;;;;;1.50;0.33;;;;;;;5.07;100.00;101751.78;5016682;28;20455;-69
2023/12/27 09:54:34;;;;;;;1.60;0.40;;;;;;;5.18;99.61;101747.44;5015805;28;20522;-69
2023/12/27 09:57:01;;;;;;;1.60;0.40;;;;;;;5.18;99.54;101748.28;5007700;28;20538;-69
2023/12/27 09:59:29;;;;;;;1.80;0.60;;;;;;;5.25;99.42;101746.25;5015719;28;20436;-69
2023/12/27 10:02:01;;;;;;;1.50;0.30;;;;;;;5.30;99.25;101748.25;5021256;28;20444;-70
2023/12/27 10:04:37;;;;;;;1.80;0.60;;;;;;;5.34;98.55;101746.72;5021814;28;20538;-69
2023/12/27 10:07:05;;;;;;;2.47;0.93;;;;;;;5.36;99.12;101743.78;5015369;28;20448;-69
2023/12/27 10:09:33;;;;;;;1.50;0.30;;;;;;;5.38;99.37;101744.38;5015592;28;20526;-69
2023/12/27 10:12:00;;;;;;;3.00;0.50;;;;;;;5.40;98.54;101737.72;5016429;28;20820;-70
2023/12/27 10:14:28;;;;;;;1.60;0.40;;;;;;;5.44;98.16;101738.03;5015768;28;20502;-70
2023/12/27 10:16:57;;;;;;;1.50;0.40;;;;;;;5.47;98.69;101732.19;5016512;28;20486;-70
2023/12/27 10:19:40;;;;;;;2.53;0.70;;;;;;;5.49;98.05;101730.91;5019143;28;20490;-70
2023/12/27 10:22:10;;;;;;;1.70;0.43;;;;;;;5.52;97.97;101726.91;5013346;28;20475;-67
2023/12/27 10:24:37;;;;;;;1.57;0.43;;;;;;;5.59;98.10;101718.72;5020550;28;20492;-73
2023/12/27 10:27:04;;;;;;;1.50;0.40;;;;;;;5.68;97.15;101718.09;5014289;28;20432;-68
2023/12/27 10:29:32;;;;;;;2.03;0.43;;;;;;;5.72;96.23;101721.94;5021036;28;20475;-68
2023/12/27 10:32:01;;;;;;;1.60;0.40;;;;;;;5.75;94.99;101728.69;5015597;28;20892;-69
2023/12/27 10:34:28;;;;;;;1.60;0.50;;;;;;;5.70;95.41;101728.59;5019511;28;20448;-69
2023/12/27 10:36:56;;;;;;;1.50;0.30;;;;;;;5.75;96.00;101726.81;5015927;28;20487;-69
2023/12/27 10:39:24;;;;;;;1.50;0.30;;;;;;;5.79;95.97;101729.84;5020602;28;20492;-69
2023/12/27 10:41:53;;;;;;;2.23;0.90;;;;;;;5.81;94.92;101717.00;5031993;28;20829;-69
2023/12/27 10:44:20;;;;;;;1.57;0.40;;;;;;;5.83;94.69;101710.31;5024201;28;20499;-69
2023/12/27 10:46:48;;;;;;;3.73;1.33;;;;;;;5.81;95.66;101708.94;5032666;28;20973;-69
2023/12/27 10:49:15;;;;;;;1.70;0.40;;;;;;;5.94;95.56;101699.78;5032680;28;20478;-69
2023/12/27 10:51:43;;;;;;;2.47;0.57;;;;;;;5.99;95.44;101700.69;5020030;28;20472;-69
2023/12/27 10:54:11;;;;;;;1.50;0.40;;;;;;;6.07;94.42;101691.41;5034061;28;20494;-68
2023/12/27 10:56:41;;;;;;;1.57;0.43;;;;;;;6.13;94.16;101697.69;5020874;28;20516;-68
2023/12/27 10:59:09;;;;;;;2.20;0.80;;;;;;;6.15;94.27;101682.91;5013384;28;20464;-69
2023/12/27 11:01:39;;;;;;;1.60;0.40;;;;;;;6.21;93.59;101679.25;5014775;28;20468;-70
2023/12/27 11:04:08;;;;;;;1.50;0.40;;;;;;;6.19;93.58;101672.47;5023705;28;20459;-69
2023/12/27 11:06:37;;;;;;;1.60;0.50;;;;;;;6.21;93.37;101681.94;5032742;28;20832;-69
2023/12/27 11:09:07;;;;;;;1.70;0.50;;;;;;;6.20;93.10;101677.63;5016690;28;20924;-70
2023/12/27 11:11:37;;;;;;;1.50;0.33;;;;;;;6.25;92.77;101684.97;5014325;28;20452;-72
2023/12/27 11:14:08;;;;;;;1.50;0.37;;;;;;;6.27;92.92;101680.97;5020566;28;20970;-72
2023/12/27 11:16:37;;;;;;;2.10;0.80;;;;;;;6.29;92.10;101686.94;5022149;28;20514;-71
2023/12/27 11:19:05;;;;;;;1.77;0.60;;;;;;;6.26;91.46;101682.03;5013369;28;20882;-71
2023/12/27 11:21:32;;;;;;;3.13;0.80;;;;;;;6.26;91.78;101683.91;5014098;28;20458;-72
2023/12/27 11:23:59;;;;;;;2.23;0.70;;;;;;;6.30;92.29;101685.03;5014253;28;20452;-71
2023/12/27 11:26:27;;;;;;;1.60;0.47;;;;;;;6.37;93.46;101682.19;5013715;28;20499;-71
2023/12/27 11:28:54;;;;;;;1.60;0.40;;;;;;;6.35;93.30;101677.06;5009884;28;20459;-71